CH-0004 weather

Altiport du Glacier de Tsanfleuron
Switzerland

Public forecast

Using degrees Celsius for public forecast. Weather courtesy of forecast.io.

Closest aviation weather report (METAR) to Altiport du Glacier de Tsanfleuron

Closest report is Sion Airport, 7.2 nm (13.4 km) SSE. Retrieved 2020/01/24 04:20 UTC (14 minutes ago):

LSGS 240420Z AUTO 00000KT 4000 BR FEW120 M03/M03 Q1026

Closest aviation forecast (TAF) to Altiport du Glacier de Tsanfleuron

Forecast is more than 6 hours old.

Closest forecast is Payerne Air Base, 34.0 nm (63.0 km) NNW. Retrieved 2020/01/23 17:00 UTC (12 hours ago):

TAF LSMP 231625Z 2317/2423 VRB03KT 5000 BR OVC005 BECMG 2402/2406 SCT010 PROB40 2404/2409 0400 FZFG VV002